WITT/BTJ METAR and TAF weather

Enter ICAO airport designator
Station Type Date Time Source
WITT METAR UTC NOAA

Error!


Station Type Date Time Source
WITT Decoded METAR UTC NOAA

Error!

Station Type Date Time Source
WITT TAF 2022/11/30 18:00 UTC NOAA

TAF WITT 301700Z 3018/0118 15004KT 9999 SCT017
TEMPO 3019/3022 5000 RA BKN016 PROB30
TEMPO 0109/0112 4000 RA FEW016CB

Example: see airport list